createdAt,value
2022-08-22T00:02:23.916Z,16.40
2022-08-22T00:02:49.934Z,17.90
2022-08-22T00:02:54.358Z,18.50
2022-08-22T00:02:56.462Z,18.10
2022-08-22T00:02:58.275Z,19.70
2022-08-22T00:02:59.810Z,20.50
2022-08-22T00:02:59.904Z,19.00
2022-08-22T00:03:01.583Z,21.80
2022-08-22T00:05:10.698Z,16.40
2022-08-22T00:07:58.411Z,16.50
2022-08-22T00:10:51.616Z,16.50
2022-08-22T00:13:45.687Z,16.40
2022-08-22T00:16:29.119Z,16.30
2022-08-22T00:19:16.550Z,16.20
2022-08-22T00:22:13.406Z,16.20
2022-08-22T00:24:46.808Z,16.10
2022-08-22T00:27:21.720Z,16.20
2022-08-22T00:29:58.720Z,16.20
2022-08-22T00:32:42.834Z,16.10
2022-08-22T00:35:24.216Z,16.10
2022-08-22T00:38:07.011Z,16.10
2022-08-22T00:41:04.994Z,16.00
2022-08-22T00:43:50.019Z,16.00
2022-08-22T00:46:27.463Z,16.00
2022-08-22T00:49:23.524Z,15.90
2022-08-22T00:52:16.316Z,15.90
2022-08-22T00:55:20.371Z,15.80
2022-08-22T00:58:22.889Z,15.80
2022-08-22T01:00:56.988Z,15.80
2022-08-22T01:03:44.639Z,15.70
2022-08-22T01:06:48.986Z,15.70
2022-08-22T01:09:33.902Z,15.60
2022-08-22T01:12:28.403Z,15.50
2022-08-22T01:15:04.613Z,15.50
2022-08-22T01:17:59.493Z,15.50
2022-08-22T01:20:47.601Z,15.50
2022-08-22T01:23:26.537Z,15.50
2022-08-22T01:26:11.922Z,15.50
2022-08-22T01:29:16.495Z,15.50
2022-08-22T01:31:58.825Z,15.60
2022-08-22T01:35:09.126Z,15.60
2022-08-22T01:38:02.512Z,15.50
2022-08-22T01:40:53.450Z,15.40
2022-08-22T01:43:58.650Z,15.30
2022-08-22T01:46:47.237Z,15.20
2022-08-22T01:49:29.508Z,15.10
2022-08-22T01:52:05.418Z,15.10
2022-08-22T01:54:55.889Z,15.00
2022-08-22T01:57:24.200Z,15.00
2022-08-22T01:59:55.264Z,15.00
2022-08-22T02:02:40.157Z,15.00
2022-08-22T02:05:37.895Z,15.00
2022-08-22T02:08:44.690Z,14.90
2022-08-22T02:11:28.611Z,15.00
2022-08-22T02:14:21.521Z,15.00
2022-08-22T02:16:55.926Z,15.00
2022-08-22T02:19:38.704Z,14.90
2022-08-22T02:22:22.761Z,15.00
2022-08-22T02:25:10.691Z,15.00
2022-08-22T02:27:53.895Z,15.00
2022-08-22T02:30:42.859Z,14.90
2022-08-22T02:33:21.333Z,14.80
2022-08-22T02:35:58.811Z,14.80
2022-08-22T02:38:39.173Z,14.80
2022-08-22T02:41:35.049Z,14.70
2022-08-22T02:44:20.972Z,14.70
2022-08-22T02:47:09.164Z,14.70
2022-08-22T02:50:18.444Z,14.60
2022-08-22T02:52:57.238Z,14.60
2022-08-22T02:55:54.963Z,14.60
2022-08-22T02:58:59.194Z,14.60
2022-08-22T03:01:29.873Z,14.50
2022-08-22T03:04:18.020Z,14.60
2022-08-22T03:06:59.200Z,14.60
2022-08-22T03:09:33.454Z,14.60
2022-08-22T03:12:28.943Z,14.60
2022-08-22T03:15:06.765Z,14.60
2022-08-22T03:17:40.363Z,14.60
2022-08-22T03:20:21.401Z,14.60
2022-08-22T03:23:00.590Z,14.60
2022-08-22T03:25:38.047Z,14.60
2022-08-22T03:28:22.023Z,14.50
2022-08-22T03:30:59.977Z,14.40
2022-08-22T03:33:31.244Z,14.30
2022-08-22T03:36:09.826Z,14.30
2022-08-22T03:38:36.733Z,14.30
2022-08-22T03:41:19.114Z,14.10
2022-08-22T03:44:32.308Z,14.10
2022-08-22T03:47:28.979Z,14.10
2022-08-22T03:50:34.064Z,14.10
2022-08-22T03:53:15.220Z,14.00
2022-08-22T03:56:13.925Z,14.00
2022-08-22T03:58:54.537Z,13.90
2022-08-22T04:01:59.084Z,13.90
2022-08-22T04:04:48.281Z,14.00
2022-08-22T04:07:31.582Z,13.90
2022-08-22T04:10:22.612Z,13.90
2022-08-22T04:13:27.624Z,13.90
2022-08-22T04:16:14.084Z,13.90
2022-08-22T04:18:52.977Z,13.90
2022-08-22T04:21:24.041Z,13.90
2022-08-22T04:24:12.865Z,13.90
2022-08-22T04:27:08.979Z,13.90
2022-08-22T04:29:42.731Z,13.80
2022-08-22T04:32:27.209Z,13.80
2022-08-22T04:35:06.931Z,13.90
2022-08-22T04:37:46.372Z,13.90
2022-08-22T04:40:28.938Z,14.00
2022-08-22T04:43:10.769Z,14.00
2022-08-22T04:45:54.018Z,14.10
2022-08-22T04:48:33.686Z,14.30
2022-08-22T04:51:30.857Z,14.30
2022-08-22T04:54:25.906Z,14.50
2022-08-22T04:57:21.143Z,14.60
2022-08-22T04:59:49.814Z,14.70
2022-08-22T05:02:24.508Z,14.80
2022-08-22T05:05:04.920Z,14.90
2022-08-22T05:07:49.687Z,14.80
2022-08-22T05:10:41.586Z,14.90
2022-08-22T05:13:13.277Z,15.00
2022-08-22T05:15:45.827Z,15.20
2022-08-22T05:18:29.596Z,15.50
2022-08-22T05:20:58.575Z,15.80
2022-08-22T05:23:35.331Z,16.10
2022-08-22T05:26:06.214Z,16.20
2022-08-22T05:28:40.041Z,16.30
2022-08-22T05:31:10.948Z,16.40
2022-08-22T05:33:50.380Z,16.50
2022-08-22T05:36:25.214Z,16.80
2022-08-22T05:38:57.630Z,17.10
2022-08-22T05:41:28.884Z,17.60
2022-08-22T05:43:56.128Z,18.10
2022-08-22T05:47:02.464Z,18.40
2022-08-22T05:49:58.706Z,18.70
2022-08-22T05:52:56.419Z,18.90
2022-08-22T05:55:23.205Z,19.20
2022-08-22T05:58:02.980Z,19.60
2022-08-22T06:00:37.061Z,20.20
2022-08-22T06:03:36.739Z,20.70
2022-08-22T06:06:13.240Z,21.30
2022-08-22T06:08:44.225Z,21.70
2022-08-22T06:11:52.062Z,22.00
2022-08-22T06:14:43.433Z,22.30
2022-08-22T06:17:15.483Z,22.50
2022-08-22T06:19:47.678Z,22.70
2022-08-22T06:22:18.940Z,22.90
2022-08-22T06:24:47.710Z,23.10
2022-08-22T06:27:17.804Z,23.40
2022-08-22T06:29:50.867Z,23.60
2022-08-22T06:33:00.172Z,23.90
2022-08-22T06:35:55.180Z,24.30
2022-08-22T06:38:26.522Z,24.50
2022-08-22T06:40:54.747Z,24.60
2022-08-22T06:43:24.773Z,24.70
2022-08-22T06:45:53.036Z,25.00
2022-08-22T06:48:23.519Z,25.60
2022-08-22T06:50:56.084Z,26.40
2022-08-22T06:53:37.106Z,27.20
2022-08-22T06:56:07.894Z,28.00
2022-08-22T06:58:42.551Z,28.80
2022-08-22T07:01:16.943Z,29.40
2022-08-22T07:03:47.314Z,29.90
2022-08-22T07:06:17.072Z,30.30
2022-08-22T07:08:45.007Z,30.90
2022-08-22T07:11:29.318Z,31.40
2022-08-22T07:14:11.250Z,31.50
2022-08-22T07:16:49.827Z,31.30
2022-08-22T07:19:48.264Z,31.30
2022-08-22T07:22:16.692Z,31.30
2022-08-22T07:24:51.620Z,31.50
2022-08-22T07:27:40.455Z,31.90
2022-08-22T07:30:14.723Z,32.50
2022-08-22T07:33:18.973Z,33.00
2022-08-22T07:35:53.776Z,33.40
2022-08-22T07:38:43.176Z,33.70
2022-08-22T07:41:21.107Z,33.80
2022-08-22T07:44:16.260Z,34.00
2022-08-22T07:47:18.837Z,34.30
2022-08-22T07:50:04.464Z,34.90
2022-08-22T07:52:40.823Z,35.30
2022-08-22T07:55:26.259Z,35.70
2022-08-22T07:58:04.007Z,35.70
2022-08-22T08:00:32.922Z,35.90
2022-08-22T08:03:05.862Z,35.90
2022-08-22T08:05:37.061Z,36.10
2022-08-22T08:08:21.151Z,36.30
2022-08-22T08:10:52.160Z,36.60
2022-08-22T08:13:31.684Z,37.00
2022-08-22T08:15:59.596Z,37.10
2022-08-22T08:18:32.674Z,37.20
2022-08-22T08:21:21.955Z,37.30
2022-08-22T08:23:49.500Z,37.50
2022-08-22T08:26:24.419Z,37.80
2022-08-22T08:28:54.686Z,37.90
2022-08-22T08:31:38.040Z,38.30
2022-08-22T08:34:22.083Z,38.60
2022-08-22T08:37:03.111Z,38.60
2022-08-22T08:39:41.158Z,38.50
2022-08-22T08:42:55.958Z,38.40
2022-08-22T08:45:41.824Z,38.60
2022-08-22T08:48:40.246Z,38.80
2022-08-22T08:51:14.703Z,38.70
2022-08-22T08:53:53.881Z,38.70
2022-08-22T08:56:47.336Z,38.90
2022-08-22T08:59:44.869Z,39.10
2022-08-22T09:02:45.550Z,39.00
2022-08-22T09:05:48.263Z,38.90
2022-08-22T09:09:13.796Z,39.00
2022-08-22T09:12:05.461Z,39.00
2022-08-22T09:15:11.761Z,38.70
2022-08-22T09:18:27.994Z,38.20
2022-08-22T09:21:31.946Z,37.80
2022-08-22T09:24:20.586Z,36.60
2022-08-22T09:27:08.673Z,35.90
2022-08-22T09:29:54.557Z,35.20
2022-08-22T09:33:00.917Z,35.50
2022-08-22T09:35:57.163Z,36.40
2022-08-22T09:38:38.795Z,36.80
2022-08-22T09:41:14.882Z,37.10
2022-08-22T09:44:07.639Z,37.40
2022-08-22T09:46:43.813Z,37.60
2022-08-22T09:49:41.916Z,37.90
2022-08-22T09:52:31.956Z,38.00
2022-08-22T09:55:07.963Z,38.00
2022-08-22T09:57:59.634Z,37.60
2022-08-22T10:00:40.603Z,37.20
2022-08-22T10:03:27.093Z,36.70
2022-08-22T10:06:17.857Z,36.10
2022-08-22T10:08:53.883Z,35.80
2022-08-22T10:11:23.867Z,35.30
2022-08-22T10:14:04.963Z,34.60
2022-08-22T10:16:58.654Z,34.20
2022-08-22T10:19:28.396Z,34.00
2022-08-22T10:22:30.205Z,34.40
2022-08-22T10:25:07.508Z,35.10
2022-08-22T10:27:48.854Z,35.60
2022-08-22T10:30:30.224Z,35.90
2022-08-22T10:33:13.354Z,36.20
2022-08-22T10:35:43.616Z,35.90
2022-08-22T10:38:35.266Z,35.50
2022-08-22T10:41:41.542Z,35.20
2022-08-22T10:44:40.612Z,35.40
2022-08-22T10:47:21.230Z,35.70
2022-08-22T10:49:56.641Z,36.10
2022-08-22T10:52:32.045Z,36.60
2022-08-22T10:55:09.987Z,36.90
2022-08-22T10:58:16.503Z,37.30
2022-08-22T11:00:54.272Z,37.40
2022-08-22T11:03:39.842Z,37.60
2022-08-22T11:06:18.287Z,38.10
2022-08-22T11:09:03.838Z,38.40
2022-08-22T11:11:45.850Z,38.70
2022-08-22T11:14:26.759Z,39.00
2022-08-22T11:17:23.632Z,39.00
2022-08-22T11:20:21.380Z,38.30
2022-08-22T11:23:16.488Z,37.90
2022-08-22T11:26:33.550Z,38.30
2022-08-22T11:29:34.016Z,38.50
2022-08-22T11:32:26.104Z,38.70
2022-08-22T11:35:20.981Z,38.10
2022-08-22T11:38:11.113Z,37.60
2022-08-22T11:40:45.576Z,37.60
2022-08-22T11:43:34.956Z,37.40
2022-08-22T11:46:33.741Z,36.80
2022-08-22T11:49:25.601Z,36.00
2022-08-22T11:52:13.053Z,35.80
2022-08-22T11:54:54.623Z,35.40
2022-08-22T11:57:36.004Z,34.80
2022-08-22T12:00:13.135Z,33.80
2022-08-22T12:02:47.442Z,33.20
2022-08-22T12:05:24.623Z,32.80
2022-08-22T12:08:21.153Z,32.60
2022-08-22T12:11:09.415Z,32.30
2022-08-22T12:14:06.087Z,31.90
2022-08-22T12:16:47.380Z,32.00
2022-08-22T12:19:32.764Z,32.20
2022-08-22T12:22:33.734Z,32.90
2022-08-22T12:25:11.950Z,33.90
2022-08-22T12:27:58.059Z,33.80
2022-08-22T12:30:54.715Z,32.80
2022-08-22T12:33:30.706Z,31.70
2022-08-22T12:36:30.601Z,30.60
2022-08-22T12:39:16.268Z,29.80
2022-08-22T12:42:01.044Z,29.10
2022-08-22T12:44:36.716Z,28.90
2022-08-22T12:47:58.228Z,29.10
2022-08-22T12:50:50.504Z,29.80
2022-08-22T12:53:49.028Z,30.50
2022-08-22T12:56:33.736Z,31.00
2022-08-22T12:59:15.365Z,31.30
2022-08-22T13:01:47.991Z,31.20
2022-08-22T13:04:33.456Z,30.90
2022-08-22T13:07:17.380Z,30.60
2022-08-22T13:09:54.532Z,30.20
2022-08-22T13:12:33.111Z,30.00
2022-08-22T13:15:10.769Z,29.90
2022-08-22T13:17:37.913Z,29.80
2022-08-22T13:20:22.208Z,29.70
2022-08-22T13:22:49.389Z,29.80
2022-08-22T13:25:25.815Z,29.70
2022-08-22T13:27:59.222Z,29.40
2022-08-22T13:30:37.375Z,29.00
2022-08-22T13:33:10.276Z,28.60
2022-08-22T13:35:52.726Z,28.50
2022-08-22T13:38:46.366Z,28.50
2022-08-22T13:41:18.726Z,28.40
2022-08-22T13:44:13.996Z,28.30
2022-08-22T13:47:10.810Z,28.30
2022-08-22T13:49:49.142Z,28.30
2022-08-22T13:52:32.645Z,28.40
2022-08-22T13:55:22.830Z,28.60
2022-08-22T13:57:57.858Z,28.50
2022-08-22T14:01:02.641Z,28.30
2022-08-22T14:03:39.607Z,28.20
2022-08-22T14:06:37.581Z,28.10
2022-08-22T14:09:51.321Z,28.00
2022-08-22T14:12:33.614Z,28.00
2022-08-22T14:15:30.582Z,28.10
2022-08-22T14:18:30.327Z,28.30
2022-08-22T14:21:26.105Z,28.30
2022-08-22T14:23:58.591Z,28.40
2022-08-22T14:26:33.175Z,28.60
2022-08-22T14:29:18.660Z,28.80
2022-08-22T14:32:12.441Z,29.10
2022-08-22T14:34:42.733Z,29.60
2022-08-22T14:37:22.140Z,29.80
2022-08-22T14:39:53.891Z,30.10
2022-08-22T14:42:29.361Z,29.90
2022-08-22T14:45:06.809Z,29.60
2022-08-22T14:48:14.305Z,29.50
2022-08-22T14:50:45.780Z,29.40
2022-08-22T14:53:22.273Z,29.30
2022-08-22T14:56:27.827Z,29.30
2022-08-22T14:59:02.478Z,29.20
2022-08-22T15:01:32.782Z,29.10
2022-08-22T15:04:06.647Z,29.00
2022-08-22T15:06:36.551Z,28.90
2022-08-22T15:09:11.023Z,28.70
2022-08-22T15:11:42.408Z,28.50
2022-08-22T15:14:21.317Z,28.30
2022-08-22T15:16:56.371Z,28.20
2022-08-22T15:19:35.416Z,28.00
2022-08-22T15:22:08.524Z,28.00
2022-08-22T15:25:06.951Z,27.80
2022-08-22T15:28:05.252Z,27.80
2022-08-22T15:30:34.880Z,27.90
2022-08-22T15:33:09.616Z,28.00
2022-08-22T15:35:39.213Z,28.00
2022-08-22T15:38:32.368Z,27.90
2022-08-22T15:41:22.080Z,27.60
2022-08-22T15:43:53.744Z,27.30
2022-08-22T15:46:23.307Z,27.20
2022-08-22T15:49:01.875Z,27.00
2022-08-22T15:52:05.298Z,26.90
2022-08-22T15:54:55.095Z,26.80
2022-08-22T15:57:38.928Z,26.70
2022-08-22T16:00:32.626Z,26.60
2022-08-22T16:03:25.713Z,26.40
2022-08-22T16:06:00.036Z,26.30
2022-08-22T16:08:47.044Z,26.30
2022-08-22T16:11:29.541Z,26.30
2022-08-22T16:14:34.276Z,26.20
2022-08-22T16:17:27.227Z,26.30
2022-08-22T16:20:09.879Z,26.40
2022-08-22T16:23:01.457Z,26.50
2022-08-22T16:25:46.480Z,26.60
2022-08-22T16:29:03.840Z,26.70
2022-08-22T16:31:30.611Z,26.70
2022-08-22T16:34:20.726Z,26.50
2022-08-22T16:36:47.805Z,26.30
2022-08-22T16:39:23.592Z,26.10
2022-08-22T16:42:15.974Z,25.90
2022-08-22T16:44:48.186Z,25.70
2022-08-22T16:47:29.613Z,25.50
2022-08-22T16:50:02.524Z,25.30
2022-08-22T16:52:30.029Z,25.20
2022-08-22T16:55:03.350Z,25.10
2022-08-22T16:58:10.173Z,25.00
2022-08-22T17:00:58.040Z,24.90
2022-08-22T17:03:39.786Z,24.70
2022-08-22T17:06:37.136Z,24.50
2022-08-22T17:09:28.792Z,24.40
2022-08-22T17:12:16.308Z,24.30
2022-08-22T17:14:58.192Z,24.30
2022-08-22T17:18:01.990Z,24.20
2022-08-22T17:20:49.416Z,24.00
2022-08-22T17:23:38.609Z,23.80
2022-08-22T17:26:29.981Z,23.70
2022-08-22T17:29:21.942Z,23.60
2022-08-22T17:36:04.269Z,23.30
2022-08-22T17:39:10.864Z,23.20
2022-08-22T17:42:03.272Z,23.10
2022-08-22T17:44:45.076Z,22.90
2022-08-22T17:47:17.611Z,22.80
2022-08-22T17:50:10.676Z,22.70
2022-08-22T17:53:00.875Z,22.60
2022-08-22T17:55:33.927Z,22.50
2022-08-22T17:58:43.190Z,22.50
2022-08-22T18:01:14.560Z,22.40
2022-08-22T18:03:50.150Z,22.30
2022-08-22T18:06:23.993Z,22.20
2022-08-22T18:09:17.080Z,22.10
2022-08-22T18:11:56.433Z,22.00
2022-08-22T18:14:35.248Z,21.90
2022-08-22T18:17:21.720Z,21.80
2022-08-22T18:20:36.454Z,21.70
2022-08-22T18:23:35.594Z,21.60
2022-08-22T18:26:33.633Z,21.50
2022-08-22T18:29:23.632Z,21.40
2022-08-22T18:32:08.753Z,21.40
2022-08-22T18:34:47.205Z,21.30
2022-08-22T18:37:46.287Z,21.20
2022-08-22T18:40:28.920Z,21.10
2022-08-22T18:43:13.249Z,21.00
2022-08-22T18:45:46.150Z,20.80
2022-08-22T18:48:49.483Z,20.80
2022-08-22T18:51:38.405Z,20.70
2022-08-22T18:54:05.496Z,20.60
2022-08-22T18:56:51.554Z,20.50
2022-08-22T18:59:36.249Z,20.30
2022-08-22T19:02:14.616Z,20.30
2022-08-22T19:05:12.453Z,20.20
2022-08-22T19:08:03.163Z,20.20
2022-08-22T19:10:50.063Z,20.10
2022-08-22T19:13:44.273Z,20.00
2022-08-22T19:16:45.613Z,20.00
2022-08-22T19:20:09.884Z,19.90
2022-08-22T19:22:37.819Z,19.90
2022-08-22T19:25:27.202Z,19.80
2022-08-22T19:28:06.343Z,19.70
2022-08-22T19:30:42.870Z,19.70
2022-08-22T19:33:34.202Z,19.70
2022-08-22T19:36:09.646Z,19.60
2022-08-22T19:39:04.345Z,19.60
2022-08-22T19:41:52.532Z,19.60
2022-08-22T19:44:19.324Z,19.50
2022-08-22T19:47:18.237Z,19.50
2022-08-22T19:50:05.577Z,19.50
2022-08-22T19:52:57.820Z,19.50
2022-08-22T19:55:36.862Z,19.50
2022-08-22T19:58:33.250Z,19.50
2022-08-22T20:01:28.600Z,19.50
2022-08-22T20:04:04.795Z,19.50
2022-08-22T20:06:57.942Z,19.40
2022-08-22T20:10:08.979Z,19.40
2022-08-22T20:13:01.886Z,19.30
2022-08-22T20:15:31.474Z,19.20
2022-08-22T20:18:47.266Z,19.20
2022-08-22T20:20:59.411Z,19.20
2022-08-22T20:23:31.567Z,19.10
2022-08-22T20:25:59.723Z,19.00
2022-08-22T20:28:40.761Z,19.00
2022-08-22T20:31:19.708Z,18.90
2022-08-22T20:33:51.299Z,18.90
2022-08-22T20:36:27.801Z,18.90
2022-08-22T20:39:01.776Z,18.90
2022-08-22T20:41:36.677Z,18.80
2022-08-22T20:44:13.983Z,18.70
2022-08-22T20:46:44.032Z,18.70
2022-08-22T20:49:26.348Z,18.70
2022-08-22T20:52:06.147Z,18.60
2022-08-22T20:54:42.062Z,18.60
2022-08-22T20:57:18.248Z,18.60
2022-08-22T20:59:57.657Z,18.50
2022-08-22T21:02:41.412Z,18.50
2022-08-22T21:05:18.569Z,18.50
2022-08-22T21:07:48.399Z,18.40
2022-08-22T21:10:38.519Z,18.40
2022-08-22T21:13:12.227Z,18.30
2022-08-22T21:15:46.822Z,18.30
2022-08-22T21:18:28.238Z,18.30
2022-08-22T21:21:05.084Z,18.20
2022-08-22T21:23:40.635Z,18.20
2022-08-22T21:26:19.737Z,18.20
2022-08-22T21:28:49.554Z,18.10
2022-08-22T21:31:21.933Z,18.10
2022-08-22T21:33:51.655Z,18.00
2022-08-22T21:36:22.583Z,18.00
2022-08-22T21:39:00.861Z,17.90
2022-08-22T21:41:49.132Z,17.90
2022-08-22T21:44:25.148Z,17.90
2022-08-22T21:46:52.506Z,17.90
2022-08-22T21:49:24.633Z,17.90
2022-08-22T21:51:51.893Z,17.80
2022-08-22T21:54:25.789Z,17.80
2022-08-22T21:57:13.735Z,17.80
2022-08-22T21:59:51.124Z,17.80
2022-08-22T22:02:31.214Z,17.70
2022-08-22T22:05:00.653Z,17.70
2022-08-22T22:07:29.391Z,17.70
2022-08-22T22:09:56.261Z,17.70
2022-08-22T22:12:23.623Z,17.60
2022-08-22T22:14:50.797Z,17.60
2022-08-22T22:17:19.189Z,17.60
2022-08-22T22:19:47.065Z,17.60
2022-08-22T22:22:13.771Z,17.50
2022-08-22T22:24:40.602Z,17.50
2022-08-22T22:27:08.183Z,17.40
2022-08-22T22:29:36.089Z,17.40
2022-08-22T22:32:03.222Z,17.40
2022-08-22T22:34:30.015Z,17.40
2022-08-22T22:36:57.096Z,17.30
2022-08-22T22:39:24.813Z,17.30
2022-08-22T22:41:51.904Z,17.20
2022-08-22T22:44:18.788Z,17.10
2022-08-22T22:46:49.039Z,17.10
2022-08-22T22:49:15.844Z,17.10
2022-08-22T22:51:42.693Z,17.10
2022-08-22T22:54:11.253Z,17.00
2022-08-22T22:56:38.294Z,17.10
2022-08-22T22:59:13.649Z,17.00
2022-08-22T23:02:21.914Z,17.00
2022-08-22T23:04:55.415Z,16.90
2022-08-22T23:07:24.454Z,16.90
2022-08-22T23:09:56.108Z,16.80
2022-08-22T23:12:25.843Z,16.80
2022-08-22T23:14:53.292Z,16.80
2022-08-22T23:17:20.098Z,16.80
2022-08-22T23:19:47.741Z,16.80
2022-08-22T23:22:14.638Z,16.80
2022-08-22T23:24:41.648Z,16.70
2022-08-22T23:27:09.841Z,16.70
2022-08-22T23:29:40.851Z,16.70
2022-08-22T23:32:09.374Z,16.70
2022-08-22T23:34:44.029Z,16.70
2022-08-22T23:37:12.028Z,16.60
2022-08-22T23:39:39.050Z,16.50
2022-08-22T23:42:07.613Z,16.50
2022-08-22T23:44:37.255Z,16.60
2022-08-22T23:47:05.862Z,16.50
2022-08-22T23:49:33.591Z,16.50
2022-08-22T23:52:00.977Z,16.50
2022-08-22T23:54:27.863Z,16.40
2022-08-22T23:56:57.996Z,16.40
2022-08-22T23:59:30.508Z,16.40
